sensor_id;sensor_type;location;lat;lon;timestamp;temperature;humidity
612;DHT22;293;53.888;11.464;2023-08-07T00:01:47;16.20;99.90
612;DHT22;293;53.888;11.464;2023-08-07T00:04:14;16.20;99.90
612;DHT22;293;53.888;11.464;2023-08-07T00:06:41;16.30;99.90
612;DHT22;293;53.888;11.464;2023-08-07T00:09:09;16.30;99.90
612;DHT22;293;53.888;11.464;2023-08-07T00:11:36;16.30;99.90
612;DHT22;293;53.888;11.464;2023-08-07T00:14:03;16.30;99.90
612;DHT22;293;53.888;11.464;2023-08-07T00:16:29;16.20;99.90
612;DHT22;293;53.888;11.464;2023-08-07T00:18:56;16.30;99.90
612;DHT22;293;53.888;11.464;2023-08-07T00:21:23;16.30;99.90
612;DHT22;293;53.888;11.464;2023-08-07T00:23:50;16.30;99.90
612;DHT22;293;53.888;11.464;2023-08-07T00:26:18;16.30;99.90
612;DHT22;293;53.888;11.464;2023-08-07T00:28:45;16.40;99.90
612;DHT22;293;53.888;11.464;2023-08-07T00:31:12;16.30;99.90
612;DHT22;293;53.888;11.464;2023-08-07T00:33:39;16.40;99.90
612;DHT22;293;53.888;11.464;2023-08-07T00:36:07;16.30;99.90
612;DHT22;293;53.888;11.464;2023-08-07T00:38:34;16.30;99.90
612;DHT22;293;53.888;11.464;2023-08-07T00:41:01;16.30;99.90
612;DHT22;293;53.888;11.464;2023-08-07T00:43:29;16.30;99.90
612;DHT22;293;53.888;11.464;2023-08-07T00:45:56;16.30;99.90
612;DHT22;293;53.888;11.464;2023-08-07T00:48:23;16.30;99.90
612;DHT22;293;53.888;11.464;2023-08-07T00:50:51;16.30;99.90
612;DHT22;293;53.888;11.464;2023-08-07T00:53:18;16.30;99.90
612;DHT22;293;53.888;11.464;2023-08-07T00:55:45;16.20;99.90
612;DHT22;293;53.888;11.464;2023-08-07T00:58:13;16.20;99.90
612;DHT22;293;53.888;11.464;2023-08-07T01:00:42;16.30;99.90
612;DHT22;293;53.888;11.464;2023-08-07T01:03:08;16.30;99.90
612;DHT22;293;53.888;11.464;2023-08-07T01:05:38;16.30;99.90
612;DHT22;293;53.888;11.464;2023-08-07T01:08:05;16.20;99.90
612;DHT22;293;53.888;11.464;2023-08-07T01:10:39;16.30;99.90
612;DHT22;293;53.888;11.464;2023-08-07T01:13:14;16.30;99.90
612;DHT22;293;53.888;11.464;2023-08-07T01:15:46;16.20;99.90
612;DHT22;293;53.888;11.464;2023-08-07T01:18:13;16.20;99.90
612;DHT22;293;53.888;11.464;2023-08-07T01:20:41;16.20;99.90
612;DHT22;293;53.888;11.464;2023-08-07T01:23:09;16.20;99.90
612;DHT22;293;53.888;11.464;2023-08-07T01:25:36;16.10;99.90
612;DHT22;293;53.888;11.464;2023-08-07T01:28:12;16.10;99.90
612;DHT22;293;53.888;11.464;2023-08-07T01:30:44;16.00;99.90
612;DHT22;293;53.888;11.464;2023-08-07T01:33:17;15.90;99.90
612;DHT22;293;53.888;11.464;2023-08-07T01:35:52;15.90;99.90
612;DHT22;293;53.888;11.464;2023-08-07T01:38:22;15.80;99.90
612;DHT22;293;53.888;11.464;2023-08-07T01:40:51;15.90;99.90
612;DHT22;293;53.888;11.464;2023-08-07T01:43:19;15.70;99.90
612;DHT22;293;53.888;11.464;2023-08-07T01:45:46;15.70;99.90
612;DHT22;293;53.888;11.464;2023-08-07T01:48:13;15.70;99.90
612;DHT22;293;53.888;11.464;2023-08-07T01:50:40;15.80;99.90
612;DHT22;293;53.888;11.464;2023-08-07T01:53:07;15.70;99.90
612;DHT22;293;53.888;11.464;2023-08-07T01:55:35;15.60;99.90
612;DHT22;293;53.888;11.464;2023-08-07T01:58:02;15.60;99.90
612;DHT22;293;53.888;11.464;2023-08-07T02:00:29;15.70;99.90
612;DHT22;293;53.888;11.464;2023-08-07T02:02:57;15.60;99.90
612;DHT22;293;53.888;11.464;2023-08-07T02:05:23;15.60;99.90
612;DHT22;293;53.888;11.464;2023-08-07T02:07:50;15.60;99.90
612;DHT22;293;53.888;11.464;2023-08-07T02:10:17;15.60;99.90
612;DHT22;293;53.888;11.464;2023-08-07T02:12:45;15.60;99.90
612;DHT22;293;53.888;11.464;2023-08-07T02:15:12;15.60;99.90
612;DHT22;293;53.888;11.464;2023-08-07T02:17:39;15.60;99.90
612;DHT22;293;53.888;11.464;2023-08-07T02:20:08;15.60;99.90
612;DHT22;293;53.888;11.464;2023-08-07T02:22:35;15.60;99.90
612;DHT22;293;53.888;11.464;2023-08-07T02:25:02;15.60;99.90
612;DHT22;293;53.888;11.464;2023-08-07T02:27:28;15.50;99.90
612;DHT22;293;53.888;11.464;2023-08-07T02:29:57;15.50;99.90
612;DHT22;293;53.888;11.464;2023-08-07T02:32:23;15.50;99.90
612;DHT22;293;53.888;11.464;2023-08-07T02:34:50;15.60;99.90
612;DHT22;293;53.888;11.464;2023-08-07T02:37:17;15.60;99.90
612;DHT22;293;53.888;11.464;2023-08-07T02:39:46;15.50;99.90
612;DHT22;293;53.888;11.464;2023-08-07T02:42:13;15.40;99.90
612;DHT22;293;53.888;11.464;2023-08-07T02:44:40;15.40;99.90
612;DHT22;293;53.888;11.464;2023-08-07T02:47:08;15.40;99.90
612;DHT22;293;53.888;11.464;2023-08-07T02:49:35;15.40;99.90
612;DHT22;293;53.888;11.464;2023-08-07T02:52:02;15.30;99.90
612;DHT22;293;53.888;11.464;2023-08-07T02:54:29;15.40;99.90
612;DHT22;293;53.888;11.464;2023-08-07T02:56:56;15.30;99.90
612;DHT22;293;53.888;11.464;2023-08-07T02:59:23;15.30;99.90
612;DHT22;293;53.888;11.464;2023-08-07T03:01:50;15.30;99.90
612;DHT22;293;53.888;11.464;2023-08-07T03:04:18;15.30;99.90
612;DHT22;293;53.888;11.464;2023-08-07T03:06:45;15.40;99.90
612;DHT22;293;53.888;11.464;2023-08-07T03:09:12;15.30;99.90
612;DHT22;293;53.888;11.464;2023-08-07T03:11:39;15.30;99.90
612;DHT22;293;53.888;11.464;2023-08-07T03:14:06;15.30;99.90
612;DHT22;293;53.888;11.464;2023-08-07T03:16:33;15.30;99.90
612;DHT22;293;53.888;11.464;2023-08-07T03:19:00;15.20;99.90
612;DHT22;293;53.888;11.464;2023-08-07T03:21:28;15.20;99.90
612;DHT22;293;53.888;11.464;2023-08-07T03:23:55;15.20;99.90
612;DHT22;293;53.888;11.464;2023-08-07T03:26:22;15.20;99.90
612;DHT22;293;53.888;11.464;2023-08-07T03:28:48;15.20;99.90
612;DHT22;293;53.888;11.464;2023-08-07T03:31:16;15.20;99.90
612;DHT22;293;53.888;11.464;2023-08-07T03:33:43;15.10;99.90
612;DHT22;293;53.888;11.464;2023-08-07T03:36:10;15.10;99.90
612;DHT22;293;53.888;11.464;2023-08-07T03:38:38;15.10;99.90
612;DHT22;293;53.888;11.464;2023-08-07T03:41:05;15.10;99.90
612;DHT22;293;53.888;11.464;2023-08-07T03:43:32;15.10;99.90
612;DHT22;293;53.888;11.464;2023-08-07T03:45:59;15.10;99.90
612;DHT22;293;53.888;11.464;2023-08-07T03:48:26;15.10;99.90
612;DHT22;293;53.888;11.464;2023-08-07T03:50:52;15.10;99.90
612;DHT22;293;53.888;11.464;2023-08-07T03:53:19;15.20;99.90
612;DHT22;293;53.888;11.464;2023-08-07T03:55:51;15.20;99.90
612;DHT22;293;53.888;11.464;2023-08-07T03:58:18;15.20;99.90
612;DHT22;293;53.888;11.464;2023-08-07T04:00:44;15.20;99.90
612;DHT22;293;53.888;11.464;2023-08-07T04:03:11;15.20;99.90
612;DHT22;293;53.888;11.464;2023-08-07T04:05:38;15.20;99.90
612;DHT22;293;53.888;11.464;2023-08-07T04:08:05;15.20;99.90
612;DHT22;293;53.888;11.464;2023-08-07T04:10:32;15.20;99.90
612;DHT22;293;53.888;11.464;2023-08-07T04:13:00;15.20;99.90
612;DHT22;293;53.888;11.464;2023-08-07T04:15:27;15.20;99.90
612;DHT22;293;53.888;11.464;2023-08-07T04:17:54;15.20;99.90
612;DHT22;293;53.888;11.464;2023-08-07T04:20:21;15.30;99.90
612;DHT22;293;53.888;11.464;2023-08-07T04:22:48;15.30;99.90
612;DHT22;293;53.888;11.464;2023-08-07T04:25:15;15.30;99.90
612;DHT22;293;53.888;11.464;2023-08-07T04:27:42;15.20;99.90
612;DHT22;293;53.888;11.464;2023-08-07T04:30:11;15.20;99.90
612;DHT22;293;53.888;11.464;2023-08-07T04:32:38;15.20;99.90
612;DHT22;293;53.888;11.464;2023-08-07T04:35:07;15.30;99.90
612;DHT22;293;53.888;11.464;2023-08-07T04:37:33;15.30;99.90
612;DHT22;293;53.888;11.464;2023-08-07T04:40:00;15.40;99.90
612;DHT22;293;53.888;11.464;2023-08-07T04:42:27;15.50;99.90
612;DHT22;293;53.888;11.464;2023-08-07T04:44:54;15.50;99.90
612;DHT22;293;53.888;11.464;2023-08-07T04:47:22;15.50;99.90
612;DHT22;293;53.888;11.464;2023-08-07T04:52:16;15.60;99.90
612;DHT22;293;53.888;11.464;2023-08-07T04:54:43;15.60;99.90
612;DHT22;293;53.888;11.464;2023-08-07T04:57:10;15.60;99.90
612;DHT22;293;53.888;11.464;2023-08-07T04:59:37;15.60;99.90
612;DHT22;293;53.888;11.464;2023-08-07T05:02:04;15.70;99.90
612;DHT22;293;53.888;11.464;2023-08-07T05:04:33;15.60;99.90
612;DHT22;293;53.888;11.464;2023-08-07T05:06:59;15.60;99.90
612;DHT22;293;53.888;11.464;2023-08-07T05:09:26;15.60;99.90
612;DHT22;293;53.888;11.464;2023-08-07T05:11:53;15.60;99.90
612;DHT22;293;53.888;11.464;2023-08-07T05:14:20;15.60;99.90
612;DHT22;293;53.888;11.464;2023-08-07T05:16:47;15.60;99.90
612;DHT22;293;53.888;11.464;2023-08-07T05:19:14;15.70;99.90
612;DHT22;293;53.888;11.464;2023-08-07T05:21:42;15.70;99.90
612;DHT22;293;53.888;11.464;2023-08-07T05:24:09;15.70;99.90
612;DHT22;293;53.888;11.464;2023-08-07T05:26:37;15.70;99.90
612;DHT22;293;53.888;11.464;2023-08-07T05:29:04;15.70;99.90
612;DHT22;293;53.888;11.464;2023-08-07T05:31:32;15.60;99.90
612;DHT22;293;53.888;11.464;2023-08-07T05:33:59;15.70;99.90
612;DHT22;293;53.888;11.464;2023-08-07T05:36:26;15.70;99.90
612;DHT22;293;53.888;11.464;2023-08-07T05:38:55;15.80;99.90
612;DHT22;293;53.888;11.464;2023-08-07T05:41:22;15.90;99.90
612;DHT22;293;53.888;11.464;2023-08-07T05:43:49;16.00;99.90
612;DHT22;293;53.888;11.464;2023-08-07T05:46:15;16.10;99.90
612;DHT22;293;53.888;11.464;2023-08-07T05:48:42;16.10;99.90
612;DHT22;293;53.888;11.464;2023-08-07T05:51:09;16.10;99.90
612;DHT22;293;53.888;11.464;2023-08-07T05:53:36;16.10;99.90
612;DHT22;293;53.888;11.464;2023-08-07T05:56:04;16.10;99.90
612;DHT22;293;53.888;11.464;2023-08-07T05:58:31;16.20;99.90
612;DHT22;293;53.888;11.464;2023-08-07T06:00:58;16.20;99.90
612;DHT22;293;53.888;11.464;2023-08-07T06:03:25;16.30;99.90
612;DHT22;293;53.888;11.464;2023-08-07T06:05:52;16.30;99.90
612;DHT22;293;53.888;11.464;2023-08-07T06:08:19;16.40;99.90
612;DHT22;293;53.888;11.464;2023-08-07T06:10:45;16.40;99.90
612;DHT22;293;53.888;11.464;2023-08-07T06:13:14;16.30;99.90
612;DHT22;293;53.888;11.464;2023-08-07T06:15:41;16.40;99.90
612;DHT22;293;53.888;11.464;2023-08-07T06:18:07;16.50;99.90
612;DHT22;293;53.888;11.464;2023-08-07T06:20:34;16.60;99.90
612;DHT22;293;53.888;11.464;2023-08-07T06:23:01;16.60;99.90
612;DHT22;293;53.888;11.464;2023-08-07T06:25:28;16.60;99.90
612;DHT22;293;53.888;11.464;2023-08-07T06:27:55;16.60;99.90
612;DHT22;293;53.888;11.464;2023-08-07T06:30:23;16.70;99.90
612;DHT22;293;53.888;11.464;2023-08-07T06:32:50;16.70;99.90
612;DHT22;293;53.888;11.464;2023-08-07T06:35:17;16.80;99.90
612;DHT22;293;53.888;11.464;2023-08-07T06:37:44;16.80;99.90
612;DHT22;293;53.888;11.464;2023-08-07T06:40:11;16.90;99.90
612;DHT22;293;53.888;11.464;2023-08-07T06:42:38;17.00;99.90
612;DHT22;293;53.888;11.464;2023-08-07T06:45:06;17.00;99.90
612;DHT22;293;53.888;11.464;2023-08-07T06:47:34;17.00;99.90
612;DHT22;293;53.888;11.464;2023-08-07T06:50:01;17.20;99.90
612;DHT22;293;53.888;11.464;2023-08-07T06:52:28;17.20;99.90
612;DHT22;293;53.888;11.464;2023-08-07T06:54:54;17.20;99.90
612;DHT22;293;53.888;11.464;2023-08-07T06:57:21;17.20;99.90
612;DHT22;293;53.888;11.464;2023-08-07T06:59:48;17.30;99.90
612;DHT22;293;53.888;11.464;2023-08-07T07:02:15;17.30;99.90
612;DHT22;293;53.888;11.464;2023-08-07T07:04:43;17.40;99.90
612;DHT22;293;53.888;11.464;2023-08-07T07:07:10;17.40;99.90
612;DHT22;293;53.888;11.464;2023-08-07T07:09:37;17.40;99.90
612;DHT22;293;53.888;11.464;2023-08-07T07:12:04;17.40;99.90
612;DHT22;293;53.888;11.464;2023-08-07T07:14:32;17.50;99.90
612;DHT22;293;53.888;11.464;2023-08-07T07:16:59;17.50;99.90
612;DHT22;293;53.888;11.464;2023-08-07T07:19:26;17.50;99.90
612;DHT22;293;53.888;11.464;2023-08-07T07:21:54;17.50;99.90
612;DHT22;293;53.888;11.464;2023-08-07T07:24:21;17.60;99.90
612;DHT22;293;53.888;11.464;2023-08-07T07:26:48;17.80;99.90
612;DHT22;293;53.888;11.464;2023-08-07T07:29:16;17.80;99.90
612;DHT22;293;53.888;11.464;2023-08-07T07:31:43;17.80;99.90
612;DHT22;293;53.888;11.464;2023-08-07T07:34:10;17.80;99.90
612;DHT22;293;53.888;11.464;2023-08-07T07:36:37;17.80;99.90
612;DHT22;293;53.888;11.464;2023-08-07T07:39:05;17.80;99.90
612;DHT22;293;53.888;11.464;2023-08-07T07:41:32;17.80;99.90
612;DHT22;293;53.888;11.464;2023-08-07T07:43:59;17.80;99.90
612;DHT22;293;53.888;11.464;2023-08-07T07:46:27;17.80;99.90
612;DHT22;293;53.888;11.464;2023-08-07T07:48:54;17.80;99.90
612;DHT22;293;53.888;11.464;2023-08-07T07:51:22;17.70;99.90
612;DHT22;293;53.888;11.464;2023-08-07T07:53:49;17.70;99.90
612;DHT22;293;53.888;11.464;2023-08-07T07:56:17;17.80;99.90
612;DHT22;293;53.888;11.464;2023-08-07T07:58:44;17.80;99.90
612;DHT22;293;53.888;11.464;2023-08-07T08:01:11;17.90;99.90
612;DHT22;293;53.888;11.464;2023-08-07T08:03:38;17.90;99.90
612;DHT22;293;53.888;11.464;2023-08-07T08:06:05;18.00;99.90
612;DHT22;293;53.888;11.464;2023-08-07T08:08:32;18.00;99.90
612;DHT22;293;53.888;11.464;2023-08-07T08:10:59;18.00;99.90
612;DHT22;293;53.888;11.464;2023-08-07T08:13:27;18.10;99.90
612;DHT22;293;53.888;11.464;2023-08-07T08:15:54;18.20;99.90
612;DHT22;293;53.888;11.464;2023-08-07T08:18:21;18.20;99.90
612;DHT22;293;53.888;11.464;2023-08-07T08:20:48;18.30;99.90
612;DHT22;293;53.888;11.464;2023-08-07T08:23:15;18.50;99.90
612;DHT22;293;53.888;11.464;2023-08-07T08:25:42;18.40;99.90
612;DHT22;293;53.888;11.464;2023-08-07T08:28:09;18.50;99.90
612;DHT22;293;53.888;11.464;2023-08-07T08:30:37;18.50;99.90
612;DHT22;293;53.888;11.464;2023-08-07T08:33:04;18.60;99.90
612;DHT22;293;53.888;11.464;2023-08-07T08:35:31;18.70;99.90
612;DHT22;293;53.888;11.464;2023-08-07T08:37:58;18.80;99.90
612;DHT22;293;53.888;11.464;2023-08-07T08:40:25;18.90;99.90
612;DHT22;293;53.888;11.464;2023-08-07T08:42:54;18.90;99.90
612;DHT22;293;53.888;11.464;2023-08-07T08:45:26;19.00;99.90
612;DHT22;293;53.888;11.464;2023-08-07T08:47:55;19.10;99.90
612;DHT22;293;53.888;11.464;2023-08-07T08:50:24;19.20;99.90
612;DHT22;293;53.888;11.464;2023-08-07T08:52:53;19.30;99.90
612;DHT22;293;53.888;11.464;2023-08-07T08:55:22;19.30;99.90
612;DHT22;293;53.888;11.464;2023-08-07T08:57:49;19.40;99.90
612;DHT22;293;53.888;11.464;2023-08-07T09:00:17;19.60;99.90
612;DHT22;293;53.888;11.464;2023-08-07T09:02:47;19.60;99.90
612;DHT22;293;53.888;11.464;2023-08-07T09:05:16;19.80;99.90
612;DHT22;293;53.888;11.464;2023-08-07T09:07:44;19.80;99.90
612;DHT22;293;53.888;11.464;2023-08-07T09:10:12;19.90;99.90
612;DHT22;293;53.888;11.464;2023-08-07T09:12:40;19.90;99.90
612;DHT22;293;53.888;11.464;2023-08-07T09:15:09;19.90;99.80
612;DHT22;293;53.888;11.464;2023-08-07T09:17:39;19.90;99.90
612;DHT22;293;53.888;11.464;2023-08-07T09:20:07;20.00;99.80
612;DHT22;293;53.888;11.464;2023-08-07T09:22:38;20.10;99.70
612;DHT22;293;53.888;11.464;2023-08-07T09:25:06;20.00;99.60
612;DHT22;293;53.888;11.464;2023-08-07T09:27:33;20.00;99.50
612;DHT22;293;53.888;11.464;2023-08-07T09:30:02;20.20;99.90
612;DHT22;293;53.888;11.464;2023-08-07T09:32:29;20.20;99.20
612;DHT22;293;53.888;11.464;2023-08-07T09:34:56;20.30;99.00
612;DHT22;293;53.888;11.464;2023-08-07T09:37:23;20.30;98.70
612;DHT22;293;53.888;11.464;2023-08-07T09:39:51;20.30;98.10
612;DHT22;293;53.888;11.464;2023-08-07T09:42:18;20.30;97.70
612;DHT22;293;53.888;11.464;2023-08-07T09:44:45;20.30;97.40
612;DHT22;293;53.888;11.464;2023-08-07T09:47:15;20.30;97.70
612;DHT22;293;53.888;11.464;2023-08-07T09:49:42;20.40;97.70
612;DHT22;293;53.888;11.464;2023-08-07T09:52:10;20.50;97.20
612;DHT22;293;53.888;11.464;2023-08-07T09:54:38;20.60;97.20
612;DHT22;293;53.888;11.464;2023-08-07T09:57:07;20.60;95.80
612;DHT22;293;53.888;11.464;2023-08-07T09:59:34;20.60;96.30
612;DHT22;293;53.888;11.464;2023-08-07T10:02:02;20.70;96.20
612;DHT22;293;53.888;11.464;2023-08-07T10:04:29;20.60;96.60
612;DHT22;293;53.888;11.464;2023-08-07T10:06:57;20.70;96.30
612;DHT22;293;53.888;11.464;2023-08-07T10:09:24;20.80;96.10
612;DHT22;293;53.888;11.464;2023-08-07T10:11:51;20.80;95.90
612;DHT22;293;53.888;11.464;2023-08-07T10:14:19;21.00;96.10
612;DHT22;293;53.888;11.464;2023-08-07T10:16:46;21.00;96.20
612;DHT22;293;53.888;11.464;2023-08-07T10:19:13;21.10;96.20
612;DHT22;293;53.888;11.464;2023-08-07T10:21:40;21.10;95.20
612;DHT22;293;53.888;11.464;2023-08-07T10:24:09;21.00;94.30
612;DHT22;293;53.888;11.464;2023-08-07T10:26:41;20.90;94.60
612;DHT22;293;53.888;11.464;2023-08-07T10:29:11;20.90;94.20
612;DHT22;293;53.888;11.464;2023-08-07T10:31:42;21.10;94.20
612;DHT22;293;53.888;11.464;2023-08-07T10:34:09;21.20;93.50
612;DHT22;293;53.888;11.464;2023-08-07T10:36:40;21.20;92.60
612;DHT22;293;53.888;11.464;2023-08-07T10:39:07;21.10;92.20
612;DHT22;293;53.888;11.464;2023-08-07T10:41:41;21.10;92.10
612;DHT22;293;53.888;11.464;2023-08-07T10:44:18;21.10;91.30
612;DHT22;293;53.888;11.464;2023-08-07T10:46:51;21.10;91.50
612;DHT22;293;53.888;11.464;2023-08-07T10:49:35;21.10;91.80
612;DHT22;293;53.888;11.464;2023-08-07T10:52:04;21.20;92.00
612;DHT22;293;53.888;11.464;2023-08-07T10:54:37;21.20;91.50
612;DHT22;293;53.888;11.464;2023-08-07T10:57:10;21.00;91.50
612;DHT22;293;53.888;11.464;2023-08-07T10:59:37;21.00;92.10
612;DHT22;293;53.888;11.464;2023-08-07T11:02:08;20.90;91.90
612;DHT22;293;53.888;11.464;2023-08-07T11:04:38;20.90;92.00
612;DHT22;293;53.888;11.464;2023-08-07T11:07:05;20.90;92.20
612;DHT22;293;53.888;11.464;2023-08-07T11:09:33;20.80;92.30
612;DHT22;293;53.888;11.464;2023-08-07T11:12:00;20.80;92.70
612;DHT22;293;53.888;11.464;2023-08-07T11:14:27;20.50;92.80
612;DHT22;293;53.888;11.464;2023-08-07T11:16:54;20.20;94.30
612;DHT22;293;53.888;11.464;2023-08-07T11:19:23;20.10;94.80
612;DHT22;293;53.888;11.464;2023-08-07T11:21:49;20.10;94.50
612;DHT22;293;53.888;11.464;2023-08-07T11:24:17;20.20;95.10
612;DHT22;293;53.888;11.464;2023-08-07T11:26:45;20.40;94.70
612;DHT22;293;53.888;11.464;2023-08-07T11:29:16;20.50;94.60
612;DHT22;293;53.888;11.464;2023-08-07T11:31:43;20.60;95.10
612;DHT22;293;53.888;11.464;2023-08-07T11:34:10;20.60;94.80
612;DHT22;293;53.888;11.464;2023-08-07T11:36:41;20.80;94.80
612;DHT22;293;53.888;11.464;2023-08-07T11:39:09;20.90;94.90
612;DHT22;293;53.888;11.464;2023-08-07T11:41:36;21.00;94.60
612;DHT22;293;53.888;11.464;2023-08-07T11:44:03;21.00;94.60
612;DHT22;293;53.888;11.464;2023-08-07T11:46:30;20.90;94.30
612;DHT22;293;53.888;11.464;2023-08-07T11:48:57;21.00;94.00
612;DHT22;293;53.888;11.464;2023-08-07T11:51:24;21.00;93.20
612;DHT22;293;53.888;11.464;2023-08-07T11:53:53;21.00;93.20
612;DHT22;293;53.888;11.464;2023-08-07T11:56:22;20.90;92.50
612;DHT22;293;53.888;11.464;2023-08-07T11:58:50;20.80;93.10
612;DHT22;293;53.888;11.464;2023-08-07T12:01:19;20.80;93.20
612;DHT22;293;53.888;11.464;2023-08-07T12:03:51;20.70;93.50
612;DHT22;293;53.888;11.464;2023-08-07T12:06:18;20.80;93.00
612;DHT22;293;53.888;11.464;2023-08-07T12:08:45;20.70;92.90
612;DHT22;293;53.888;11.464;2023-08-07T12:11:13;20.60;93.60
612;DHT22;293;53.888;11.464;2023-08-07T12:13:41;20.60;93.60
612;DHT22;293;53.888;11.464;2023-08-07T12:16:09;20.50;94.20
612;DHT22;293;53.888;11.464;2023-08-07T12:18:43;20.30;94.40
612;DHT22;293;53.888;11.464;2023-08-07T12:21:10;20.10;94.70
612;DHT22;293;53.888;11.464;2023-08-07T12:23:37;20.10;94.80
612;DHT22;293;53.888;11.464;2023-08-07T12:26:05;20.20;94.80
612;DHT22;293;53.888;11.464;2023-08-07T12:28:34;20.30;95.10
612;DHT22;293;53.888;11.464;2023-08-07T12:31:01;20.50;95.50
612;DHT22;293;53.888;11.464;2023-08-07T12:33:28;20.60;94.80
612;DHT22;293;53.888;11.464;2023-08-07T12:35:55;20.40;94.90
612;DHT22;293;53.888;11.464;2023-08-07T12:38:22;20.30;95.50
612;DHT22;293;53.888;11.464;2023-08-07T12:40:49;20.10;97.50
612;DHT22;293;53.888;11.464;2023-08-07T12:43:17;19.80;96.40
612;DHT22;293;53.888;11.464;2023-08-07T12:45:45;19.60;97.00
612;DHT22;293;53.888;11.464;2023-08-07T12:48:12;19.60;97.00
612;DHT22;293;53.888;11.464;2023-08-07T12:50:40;19.60;97.50
612;DHT22;293;53.888;11.464;2023-08-07T12:53:07;19.70;97.70
612;DHT22;293;53.888;11.464;2023-08-07T12:55:34;19.60;98.20
612;DHT22;293;53.888;11.464;2023-08-07T12:58:01;19.60;98.70
612;DHT22;293;53.888;11.464;2023-08-07T13:00:28;19.70;98.90
612;DHT22;293;53.888;11.464;2023-08-07T13:02:57;19.60;98.30
612;DHT22;293;53.888;11.464;2023-08-07T13:05:24;19.50;98.40
612;DHT22;293;53.888;11.464;2023-08-07T13:07:51;19.50;97.20
612;DHT22;293;53.888;11.464;2023-08-07T13:10:20;19.70;95.70
612;DHT22;293;53.888;11.464;2023-08-07T13:12:48;19.80;95.10
612;DHT22;293;53.888;11.464;2023-08-07T13:15:16;19.80;94.40
612;DHT22;293;53.888;11.464;2023-08-07T13:17:44;19.70;94.50
612;DHT22;293;53.888;11.464;2023-08-07T13:20:13;19.70;95.00
612;DHT22;293;53.888;11.464;2023-08-07T13:22:40;19.80;95.50
612;DHT22;293;53.888;11.464;2023-08-07T13:25:09;20.00;94.80
612;DHT22;293;53.888;11.464;2023-08-07T13:27:36;20.20;93.80
612;DHT22;293;53.888;11.464;2023-08-07T13:30:04;20.30;91.80
612;DHT22;293;53.888;11.464;2023-08-07T13:32:31;20.50;90.80
612;DHT22;293;53.888;11.464;2023-08-07T13:34:58;20.60;90.40
612;DHT22;293;53.888;11.464;2023-08-07T13:37:26;20.50;90.40
612;DHT22;293;53.888;11.464;2023-08-07T13:39:53;20.50;90.30
612;DHT22;293;53.888;11.464;2023-08-07T13:42:23;20.80;89.60
612;DHT22;293;53.888;11.464;2023-08-07T13:44:51;20.30;90.50
612;DHT22;293;53.888;11.464;2023-08-07T13:47:17;20.30;89.70
612;DHT22;293;53.888;11.464;2023-08-07T13:49:46;20.40;87.80
612;DHT22;293;53.888;11.464;2023-08-07T13:52:13;20.50;86.70
612;DHT22;293;53.888;11.464;2023-08-07T13:54:41;20.50;85.50
612;DHT22;293;53.888;11.464;2023-08-07T13:57:08;20.60;86.20
612;DHT22;293;53.888;11.464;2023-08-07T13:59:35;20.70;85.90
612;DHT22;293;53.888;11.464;2023-08-07T14:02:01;20.90;87.30
612;DHT22;293;53.888;11.464;2023-08-07T14:04:28;20.90;86.00
612;DHT22;293;53.888;11.464;2023-08-07T14:06:55;20.80;86.60
612;DHT22;293;53.888;11.464;2023-08-07T14:09:22;20.60;86.40
612;DHT22;293;53.888;11.464;2023-08-07T14:11:51;20.40;87.00
612;DHT22;293;53.888;11.464;2023-08-07T14:14:18;20.30;88.70
612;DHT22;293;53.888;11.464;2023-08-07T14:16:45;20.30;88.20
612;DHT22;293;53.888;11.464;2023-08-07T14:19:12;20.20;88.50
612;DHT22;293;53.888;11.464;2023-08-07T14:21:39;20.10;89.50
612;DHT22;293;53.888;11.464;2023-08-07T14:24:06;20.00;89.00
612;DHT22;293;53.888;11.464;2023-08-07T14:26:32;20.00;89.00
612;DHT22;293;53.888;11.464;2023-08-07T14:29:01;19.80;89.40
612;DHT22;293;53.888;11.464;2023-08-07T14:31:28;19.70;90.00
612;DHT22;293;53.888;11.464;2023-08-07T14:33:54;19.60;90.40
612;DHT22;293;53.888;11.464;2023-08-07T14:36:22;19.60;90.40
612;DHT22;293;53.888;11.464;2023-08-07T14:38:48;19.70;90.50
612;DHT22;293;53.888;11.464;2023-08-07T14:41:16;19.70;91.10
612;DHT22;293;53.888;11.464;2023-08-07T14:43:43;19.50;91.20
612;DHT22;293;53.888;11.464;2023-08-07T14:46:12;19.50;91.80
612;DHT22;293;53.888;11.464;2023-08-07T14:48:39;19.30;92.30
612;DHT22;293;53.888;11.464;2023-08-07T14:51:06;19.30;92.90
612;DHT22;293;53.888;11.464;2023-08-07T14:53:33;19.30;92.60
612;DHT22;293;53.888;11.464;2023-08-07T14:56:01;19.40;92.70
612;DHT22;293;53.888;11.464;2023-08-07T14:58:28;19.50;92.50
612;DHT22;293;53.888;11.464;2023-08-07T15:00:55;19.60;92.40
612;DHT22;293;53.888;11.464;2023-08-07T15:03:23;19.70;92.20
612;DHT22;293;53.888;11.464;2023-08-07T15:05:50;19.70;92.10
612;DHT22;293;53.888;11.464;2023-08-07T15:08:17;19.70;92.40
612;DHT22;293;53.888;11.464;2023-08-07T15:10:44;19.70;92.10
612;DHT22;293;53.888;11.464;2023-08-07T15:13:10;19.60;92.50
612;DHT22;293;53.888;11.464;2023-08-07T15:15:37;19.50;92.60
612;DHT22;293;53.888;11.464;2023-08-07T15:18:04;19.40;92.10
612;DHT22;293;53.888;11.464;2023-08-07T15:20:35;19.30;92.30
612;DHT22;293;53.888;11.464;2023-08-07T15:23:02;19.30;92.10
612;DHT22;293;53.888;11.464;2023-08-07T15:25:29;19.20;92.10
612;DHT22;293;53.888;11.464;2023-08-07T15:27:56;19.20;92.10
612;DHT22;293;53.888;11.464;2023-08-07T15:30:27;19.10;91.80
612;DHT22;293;53.888;11.464;2023-08-07T15:32:54;19.20;92.40
612;DHT22;293;53.888;11.464;2023-08-07T15:35:21;19.10;92.30
612;DHT22;293;53.888;11.464;2023-08-07T15:37:49;19.10;92.00
612;DHT22;293;53.888;11.464;2023-08-07T15:40:16;19.10;91.80
612;DHT22;293;53.888;11.464;2023-08-07T15:42:43;19.00;92.00
612;DHT22;293;53.888;11.464;2023-08-07T15:45:11;18.90;91.60
612;DHT22;293;53.888;11.464;2023-08-07T15:47:38;18.90;91.80
612;DHT22;293;53.888;11.464;2023-08-07T15:50:06;18.80;91.90
612;DHT22;293;53.888;11.464;2023-08-07T15:52:33;18.80;91.90
612;DHT22;293;53.888;11.464;2023-08-07T15:55:01;18.70;91.80
612;DHT22;293;53.888;11.464;2023-08-07T15:57:28;18.60;92.00
612;DHT22;293;53.888;11.464;2023-08-07T15:59:56;18.50;92.10
612;DHT22;293;53.888;11.464;2023-08-07T16:02:23;18.60;92.70
612;DHT22;293;53.888;11.464;2023-08-07T16:04:49;18.60;92.30
612;DHT22;293;53.888;11.464;2023-08-07T16:07:16;18.70;91.70
612;DHT22;293;53.888;11.464;2023-08-07T16:09:43;18.70;91.30
612;DHT22;293;53.888;11.464;2023-08-07T16:12:11;18.70;91.40
612;DHT22;293;53.888;11.464;2023-08-07T16:14:38;18.60;91.60
612;DHT22;293;53.888;11.464;2023-08-07T16:17:06;18.40;91.60
612;DHT22;293;53.888;11.464;2023-08-07T16:19:33;18.20;91.70
612;DHT22;293;53.888;11.464;2023-08-07T16:22:00;18.10;92.00